Terminal Aerodrome Forecast
Issued by NWS Caribou, ME

Home | Current Version | Previous Version | Text Only | Print | Product List | Glossary On
Versions: 1 2 3 4 5 6 7 8 9 10 11 12 13 14 15 16 17 18 19
000
FTUS41 KCAR 310200 AAA
TAFBGR
TAF AMD
KBGR 310253Z 3103/3124 18008KT P6SM BCFG OVC005
     FM310600 VRB03KT 1/2SM FG BKN002
     FM311100 00000KT P6SM SCT250=

USA.gov is the U.S. government's official web portal to all federal, state and local government web resources and services.